createdAt,value
2019-06-10T00:01:16.891Z,6.67
2019-06-10T00:03:51.818Z,7.57
2019-06-10T00:06:22.985Z,7.73
2019-06-10T00:08:58.138Z,6.53
2019-06-10T00:11:31.492Z,6.33
2019-06-10T00:14:04.575Z,7.47
2019-06-10T00:16:37.627Z,9.30
2019-06-10T00:19:10.281Z,8.20
2019-06-10T00:21:43.627Z,7.23
2019-06-10T00:24:15.788Z,7.13
2019-06-10T00:26:51.126Z,6.27
2019-06-10T00:29:23.068Z,6.20
2019-06-10T00:31:56.254Z,6.50
2019-06-10T00:34:31.559Z,7.03
2019-06-10T00:37:06.303Z,6.10
2019-06-10T00:39:40.729Z,6.33
2019-06-10T00:42:15.010Z,6.33
2019-06-10T00:44:47.651Z,7.43
2019-06-10T00:47:21.208Z,8.27
2019-06-10T00:49:53.402Z,6.53
2019-06-10T00:52:25.881Z,7.93
2019-06-10T00:55:01.099Z,7.10
2019-06-10T00:57:32.197Z,7.70
2019-06-10T01:00:14.942Z,7.67
2019-06-10T01:02:41.080Z,7.53
2019-06-10T01:05:15.238Z,7.03
2019-06-10T01:07:46.914Z,6.17
2019-06-10T01:10:21.087Z,7.63
2019-06-10T01:12:52.910Z,7.43
2019-06-10T01:15:24.910Z,6.37
2019-06-10T01:17:56.836Z,7.23
2019-06-10T01:20:32.535Z,7.73
2019-06-10T01:23:06.953Z,9.63
2019-06-10T01:25:41.886Z,7.10
2019-06-10T01:28:16.802Z,8.10
2019-06-10T01:30:48.321Z,8.97
2019-06-10T01:33:21.216Z,9.83
2019-06-10T01:35:54.136Z,7.43
2019-06-10T01:38:31.695Z,6.27
2019-06-10T01:41:03.392Z,7.70
2019-06-10T01:43:35.970Z,6.97
2019-06-10T01:46:08.642Z,7.57
2019-06-10T01:48:47.874Z,7.30
2019-06-10T01:51:21.365Z,8.47
2019-06-10T01:53:53.865Z,7.73
2019-06-10T01:56:26.156Z,7.73
2019-06-10T01:58:58.812Z,7.57
2019-06-10T02:01:55.837Z,9.43
2019-06-10T02:04:31.772Z,7.77
2019-06-10T02:07:02.310Z,8.03
2019-06-10T02:09:34.484Z,9.03
2019-06-10T02:12:06.470Z,6.83
2019-06-10T02:14:38.517Z,8.13
2019-06-10T02:17:13.084Z,7.27
2019-06-10T02:19:46.758Z,11.83
2019-06-10T02:22:20.572Z,6.93
2019-06-10T02:24:55.294Z,9.27
2019-06-10T02:27:27.345Z,7.00
2019-06-10T02:30:01.799Z,6.90
2019-06-10T02:32:37.778Z,7.60
2019-06-10T02:35:14.656Z,7.40
2019-06-10T02:37:44.529Z,10.17
2019-06-10T02:40:19.287Z,8.47
2019-06-10T02:42:53.907Z,8.30
2019-06-10T02:45:32.402Z,7.53
2019-06-10T02:47:58.819Z,6.97
2019-06-10T02:51:15.792Z,7.57
2019-06-10T02:53:48.774Z,10.57
2019-06-10T02:56:39.224Z,8.07
2019-06-10T02:59:13.233Z,7.97
2019-06-10T03:01:45.529Z,8.13
2019-06-10T03:04:18.885Z,9.27
2019-06-10T03:06:54.274Z,10.07
2019-06-10T03:09:29.467Z,6.87
2019-06-10T03:11:59.907Z,8.60
2019-06-10T03:14:32.880Z,7.93
2019-06-10T03:17:08.355Z,8.83
2019-06-10T03:19:48.840Z,7.90
2019-06-10T03:22:14.220Z,8.03
2019-06-10T03:24:46.274Z,7.97
2019-06-10T03:27:21.070Z,11.17
2019-06-10T03:29:53.703Z,7.50
2019-06-10T03:32:33.175Z,7.97
2019-06-10T03:35:04.978Z,8.37
2019-06-10T03:37:35.019Z,7.40
2019-06-10T03:40:07.525Z,8.97
2019-06-10T03:42:39.631Z,7.47
2019-06-10T03:45:12.753Z,9.30
2019-06-10T03:47:45.819Z,8.53
2019-06-10T03:50:19.230Z,7.43
2019-06-10T03:52:52.605Z,7.53
2019-06-10T03:55:27.570Z,8.17
2019-06-10T03:57:58.798Z,8.07
2019-06-10T04:00:32.749Z,8.03
2019-06-10T04:03:05.421Z,7.70
2019-06-10T04:05:37.593Z,8.27
2019-06-10T04:08:09.695Z,9.37
2019-06-10T04:10:43.059Z,7.83
2019-06-10T04:13:15.104Z,11.87
2019-06-10T04:15:47.279Z,8.53
2019-06-10T04:18:19.775Z,8.33
2019-06-10T04:20:52.857Z,7.60
2019-06-10T04:23:25.801Z,6.93
2019-06-10T04:25:59.216Z,9.43
2019-06-10T04:28:33.732Z,9.00
2019-06-10T04:31:05.335Z,8.23
2019-06-10T04:33:39.107Z,7.00
2019-06-10T04:36:13.430Z,8.37
2019-06-10T04:38:45.496Z,8.23
2019-06-10T04:41:18.349Z,8.47
2019-06-10T04:43:53.012Z,8.10
2019-06-10T04:46:26.413Z,8.50
2019-06-10T04:48:58.627Z,9.33
2019-06-10T04:51:34.731Z,7.70
2019-06-10T04:54:08.809Z,9.30
2019-06-10T04:56:42.851Z,8.83
2019-06-10T04:59:16.767Z,10.40
2019-06-10T05:01:49.482Z,10.97
2019-06-10T05:04:23.618Z,7.33
2019-06-10T05:06:58.738Z,9.00
2019-06-10T05:09:35.101Z,8.43
2019-06-10T05:12:08.567Z,8.07
2019-06-10T05:14:43.129Z,8.23
2019-06-10T05:17:14.608Z,8.50
2019-06-10T05:19:47.632Z,8.93
2019-06-10T05:22:23.994Z,7.57
2019-06-10T05:24:55.379Z,8.07
2019-06-10T05:27:28.600Z,8.57
2019-06-10T05:30:02.265Z,8.53
2019-06-10T05:32:34.751Z,7.97
2019-06-10T05:35:07.367Z,8.67
2019-06-10T05:37:42.356Z,7.13
2019-06-10T05:40:15.346Z,8.17
2019-06-10T05:42:47.420Z,7.13
2019-06-10T05:45:19.862Z,7.03
2019-06-10T05:47:53.095Z,7.50
2019-06-10T05:50:26.466Z,8.63
2019-06-10T05:52:59.000Z,7.67
2019-06-10T05:55:33.483Z,7.20
2019-06-10T05:58:05.705Z,7.60
2019-06-10T06:00:37.836Z,8.07
2019-06-10T06:03:12.052Z,7.93
2019-06-10T06:05:44.047Z,7.50
2019-06-10T06:08:16.571Z,7.30
2019-06-10T06:10:49.425Z,7.70
2019-06-10T06:13:23.204Z,7.30
2019-06-10T06:15:55.620Z,7.00
2019-06-10T06:18:28.129Z,9.33
2019-06-10T06:21:19.531Z,7.47
2019-06-10T06:23:37.029Z,7.93
2019-06-10T06:26:08.817Z,8.93
2019-06-10T06:28:43.044Z,9.10
2019-06-10T06:31:15.555Z,7.77
2019-06-10T06:33:48.022Z,6.37
2019-06-10T06:36:22.402Z,6.60
2019-06-10T06:38:54.446Z,6.70
2019-06-10T06:41:27.433Z,6.73
2019-06-10T06:44:02.131Z,7.03
2019-06-10T06:46:36.592Z,6.20
2019-06-10T06:49:08.155Z,6.93
2019-06-10T06:51:51.934Z,8.30
2019-06-10T06:54:14.999Z,7.30
2019-06-10T06:56:47.157Z,7.10
2019-06-10T06:59:19.600Z,6.70
2019-06-10T07:01:52.502Z,6.80
2019-06-10T07:04:26.006Z,6.57
2019-06-10T07:06:58.736Z,5.67
2019-06-10T07:09:34.622Z,5.17
2019-06-10T07:12:07.324Z,5.63
2019-06-10T07:14:44.792Z,6.37
2019-06-10T07:17:15.974Z,10.67
2019-06-10T07:19:48.254Z,6.67
2019-06-10T07:22:23.135Z,4.97
2019-06-10T07:24:54.678Z,7.10
2019-06-10T07:27:28.585Z,5.37
2019-06-10T07:30:11.279Z,5.83
2019-06-10T07:32:38.765Z,4.00
2019-06-10T07:35:12.847Z,4.37
2019-06-10T07:37:45.823Z,5.10
2019-06-10T07:40:19.029Z,5.50
2019-06-10T07:42:53.098Z,5.63
2019-06-10T07:45:25.034Z,4.70
2019-06-10T07:47:57.009Z,4.73
2019-06-10T07:50:30.065Z,4.60
2019-06-10T07:53:02.704Z,4.37
2019-06-10T07:55:36.658Z,8.63
2019-06-10T07:58:09.624Z,4.40
2019-06-10T08:00:46.563Z,3.77
2019-06-10T08:03:16.332Z,4.27
2019-06-10T08:05:49.412Z,4.63
2019-06-10T08:08:23.440Z,5.20
2019-06-10T08:10:55.809Z,5.67
2019-06-10T08:13:32.267Z,5.47
2019-06-10T08:16:04.416Z,5.77
2019-06-10T08:18:49.784Z,5.20
2019-06-10T08:21:12.313Z,4.77
2019-06-10T08:23:47.379Z,5.30
2019-06-10T08:26:19.032Z,4.03
2019-06-10T08:28:53.127Z,5.13
2019-06-10T08:31:27.889Z,5.23
2019-06-10T08:34:02.757Z,3.90
2019-06-10T08:36:33.738Z,4.20
2019-06-10T08:39:11.187Z,4.00
2019-06-10T08:41:45.554Z,4.00
2019-06-10T08:44:16.532Z,4.57
2019-06-10T08:46:54.341Z,4.97
2019-06-10T08:49:26.463Z,5.12
2019-06-10T08:51:59.111Z,3.58
2019-06-10T08:54:32.437Z,5.35
2019-06-10T08:57:05.135Z,3.12
2019-06-10T08:59:39.689Z,4.35
2019-06-10T09:02:12.475Z,3.50
2019-06-10T09:04:48.490Z,4.28
2019-06-10T09:07:19.272Z,5.55
2019-06-10T09:09:54.011Z,5.45
2019-06-10T09:12:32.494Z,4.47
2019-06-10T09:15:03.754Z,4.30
2019-06-10T09:17:36.732Z,5.40
2019-06-10T09:20:12.860Z,4.62
2019-06-10T09:22:54.375Z,4.60
2019-06-10T09:25:22.396Z,4.55
2019-06-10T09:27:54.754Z,4.05
2019-06-10T09:30:29.022Z,4.45
2019-06-10T09:33:04.283Z,4.28
2019-06-10T09:35:35.889Z,3.55
2019-06-10T09:38:08.311Z,4.17
2019-06-10T09:41:00.355Z,4.62
2019-06-10T09:43:27.028Z,3.85
2019-06-10T09:45:59.275Z,3.52
2019-06-10T09:48:33.650Z,5.55
2019-06-10T09:51:06.496Z,5.17
2019-06-10T09:53:42.733Z,5.07
2019-06-10T09:56:12.913Z,3.50
2019-06-10T09:58:55.077Z,3.87
2019-06-10T10:01:26.214Z,4.00
2019-06-10T10:04:00.520Z,5.17
2019-06-10T10:06:33.606Z,4.80
2019-06-10T10:09:08.396Z,4.60
2019-06-10T10:11:44.100Z,7.25
2019-06-10T10:14:16.102Z,6.10
2019-06-10T10:16:55.146Z,3.20
2019-06-10T10:19:23.306Z,5.22
2019-06-10T10:21:58.405Z,8.98
2019-06-10T10:24:34.087Z,8.63
2019-06-10T10:27:09.281Z,11.97
2019-06-10T10:29:39.340Z,6.47
2019-06-10T10:32:13.161Z,4.25
2019-06-10T10:34:48.272Z,6.65
2019-06-10T10:37:22.747Z,6.60
2019-06-10T10:39:56.601Z,4.78
2019-06-10T10:42:44.622Z,6.12
2019-06-10T10:45:05.330Z,4.25
2019-06-10T10:47:37.777Z,3.98
2019-06-10T10:50:13.969Z,3.50
2019-06-10T10:52:49.939Z,4.33
2019-06-10T10:55:23.709Z,3.52
2019-06-10T10:57:56.427Z,2.98
2019-06-10T11:00:37.319Z,3.17
2019-06-10T11:03:06.656Z,3.87
2019-06-10T11:05:38.812Z,4.47
2019-06-10T11:08:13.520Z,4.03
2019-06-10T11:10:48.204Z,3.60
2019-06-10T11:13:22.322Z,4.67
2019-06-10T11:15:56.396Z,3.77
2019-06-10T11:18:34.439Z,4.12
2019-06-10T11:21:07.969Z,3.17
2019-06-10T11:23:40.085Z,4.90
2019-06-10T11:26:13.085Z,3.42
2019-06-10T11:28:47.433Z,3.77
2019-06-10T11:31:22.566Z,3.30
2019-06-10T11:33:57.881Z,3.95
2019-06-10T11:36:30.157Z,3.45
2019-06-10T11:39:02.981Z,4.33
2019-06-10T11:41:40.093Z,3.27
2019-06-10T11:44:13.450Z,2.58
2019-06-10T11:46:46.676Z,3.10
2019-06-10T11:49:18.945Z,4.20
2019-06-10T11:51:53.649Z,4.30
2019-06-10T11:54:25.439Z,2.50
2019-06-10T11:56:58.580Z,5.97
2019-06-10T11:59:32.765Z,3.30
2019-06-10T12:02:06.249Z,3.25
2019-06-10T12:04:40.270Z,4.05
2019-06-10T12:07:13.284Z,3.15
2019-06-10T12:09:45.501Z,4.70
2019-06-10T12:12:18.106Z,3.37
2019-06-10T12:14:54.801Z,4.50
2019-06-10T12:17:41.112Z,3.40
2019-06-10T12:20:02.495Z,3.80
2019-06-10T12:22:33.063Z,3.67
2019-06-10T12:25:30.329Z,3.83
2019-06-10T12:27:43.325Z,3.70
2019-06-10T12:30:17.309Z,3.40
2019-06-10T12:32:50.524Z,3.22
2019-06-10T12:35:23.516Z,4.95
2019-06-10T12:37:59.498Z,3.87
2019-06-10T12:40:30.496Z,3.25
2019-06-10T12:43:06.388Z,5.83
2019-06-10T12:45:36.348Z,3.72
2019-06-10T12:48:09.778Z,3.15
2019-06-10T12:50:42.869Z,2.98
2019-06-10T12:53:16.242Z,3.77
2019-06-10T12:55:48.361Z,2.90
2019-06-10T12:58:22.570Z,4.72
2019-06-10T13:00:55.554Z,4.17
2019-06-10T13:03:27.814Z,3.12
2019-06-10T13:06:06.664Z,5.80
2019-06-10T13:08:37.075Z,6.47
2019-06-10T13:11:09.458Z,3.83
2019-06-10T13:13:42.701Z,5.70
2019-06-10T13:16:15.715Z,3.27
2019-06-10T13:18:48.828Z,3.52
2019-06-10T13:21:22.739Z,3.30
2019-06-10T13:23:57.415Z,4.03
2019-06-10T13:26:32.911Z,3.00
2019-06-10T13:29:06.974Z,3.72
2019-06-10T13:31:37.707Z,3.37
2019-06-10T13:34:12.104Z,2.75
2019-06-10T13:36:43.633Z,3.45
2019-06-10T13:39:16.972Z,2.45
2019-06-10T13:41:49.496Z,3.77
2019-06-10T13:44:23.736Z,4.80
2019-06-10T13:46:56.628Z,4.40
2019-06-10T13:49:28.974Z,2.85
2019-06-10T13:52:05.129Z,4.85
2019-06-10T13:54:34.952Z,3.12
2019-06-10T13:57:09.244Z,3.37
2019-06-10T13:59:45.152Z,4.45
2019-06-10T14:02:15.519Z,3.33
2019-06-10T14:04:48.151Z,3.70
2019-06-10T14:07:23.198Z,3.98
2019-06-10T14:09:54.497Z,3.08
2019-06-10T14:12:26.967Z,4.45
2019-06-10T14:14:59.192Z,3.42
2019-06-10T14:17:32.908Z,3.30
2019-06-10T14:20:06.936Z,3.60
2019-06-10T14:22:42.409Z,4.28
2019-06-10T14:25:16.814Z,3.80
2019-06-10T14:27:49.715Z,3.22
2019-06-10T14:30:23.080Z,4.22
2019-06-10T14:32:55.397Z,3.42
2019-06-10T14:35:27.550Z,4.40
2019-06-10T14:38:03.495Z,3.08
2019-06-10T14:40:35.485Z,4.53
2019-06-10T14:43:08.273Z,4.37
2019-06-10T14:45:42.395Z,3.67
2019-06-10T14:48:17.231Z,3.30
2019-06-10T14:50:49.856Z,3.07
2019-06-10T14:53:23.161Z,4.20
2019-06-10T14:55:55.625Z,3.30
2019-06-10T14:58:27.680Z,5.37
2019-06-10T15:01:00.211Z,3.60
2019-06-10T15:03:32.862Z,3.43
2019-06-10T15:06:07.052Z,5.17
2019-06-10T15:08:39.508Z,4.63
2019-06-10T15:11:11.770Z,5.80
2019-06-10T15:13:43.970Z,3.37
2019-06-10T15:16:16.487Z,4.00
2019-06-10T15:18:49.557Z,2.80
2019-06-10T15:21:23.155Z,4.70
2019-06-10T15:23:55.951Z,4.87
2019-06-10T15:26:28.120Z,6.63
2019-06-10T15:29:02.788Z,3.47
2019-06-10T15:31:36.027Z,3.87
2019-06-10T15:34:08.598Z,3.67
2019-06-10T15:36:43.212Z,3.50
2019-06-10T15:39:19.349Z,3.70
2019-06-10T15:41:52.168Z,3.90
2019-06-10T15:44:47.970Z,4.37
2019-06-10T15:46:57.658Z,4.80
2019-06-10T15:49:32.643Z,4.53
2019-06-10T15:52:04.871Z,3.53
2019-06-10T15:54:38.259Z,4.83
2019-06-10T15:57:26.489Z,4.67
2019-06-10T15:59:45.050Z,5.03
2019-06-10T16:02:19.484Z,9.33
2019-06-10T16:05:05.182Z,6.37
2019-06-10T16:07:42.208Z,7.23
2019-06-10T16:10:17.814Z,5.80
2019-06-10T16:12:47.700Z,5.67
2019-06-10T16:15:24.179Z,6.17
2019-06-10T16:17:54.070Z,6.50
2019-06-10T16:20:26.921Z,6.07
2019-06-10T16:22:59.542Z,5.40
2019-06-10T16:25:31.674Z,6.37
2019-06-10T16:28:04.358Z,5.93
2019-06-10T16:30:37.026Z,5.70
2019-06-10T16:33:09.158Z,5.23
2019-06-10T16:35:41.514Z,6.03
2019-06-10T16:38:15.131Z,5.47
2019-06-10T16:40:47.957Z,6.30
2019-06-10T16:43:24.012Z,6.90
2019-06-10T16:45:54.890Z,7.43
2019-06-10T16:48:27.426Z,6.47
2019-06-10T16:50:59.482Z,7.67
2019-06-10T16:53:35.190Z,7.50
2019-06-10T16:56:05.554Z,7.90
2019-06-10T16:58:38.184Z,8.10
2019-06-10T17:01:12.428Z,5.73
2019-06-10T17:03:44.697Z,7.53
2019-06-10T17:06:17.795Z,8.10
2019-06-10T17:08:52.132Z,7.13
2019-06-10T17:11:24.170Z,7.27
2019-06-10T17:13:56.913Z,6.73
2019-06-10T17:16:29.646Z,6.53
2019-06-10T17:19:02.454Z,6.60
2019-06-10T17:21:36.022Z,6.23
2019-06-10T17:24:08.841Z,7.30
2019-06-10T17:26:42.759Z,7.30
2019-06-10T17:29:15.756Z,5.63
2019-06-10T17:31:49.387Z,7.43
2019-06-10T17:34:24.584Z,6.53
2019-06-10T17:36:59.377Z,6.80
2019-06-10T17:39:32.074Z,5.63
2019-06-10T17:42:06.611Z,6.53
2019-06-10T17:44:38.696Z,7.90
2019-06-10T17:47:13.077Z,7.07
2019-06-10T17:49:44.979Z,7.83
2019-06-10T17:52:19.343Z,8.70
2019-06-10T17:54:53.545Z,9.93
2019-06-10T17:57:29.663Z,9.57
2019-06-10T18:00:10.915Z,9.17
2019-06-10T18:02:43.752Z,12.53
2019-06-10T18:05:27.178Z,11.57
2019-06-10T18:08:02.332Z,10.23
2019-06-10T18:10:37.151Z,9.37
2019-06-10T18:13:16.288Z,8.90
2019-06-10T18:15:44.447Z,10.10
2019-06-10T18:18:16.391Z,9.27
2019-06-10T18:20:48.482Z,8.27
2019-06-10T18:23:22.928Z,11.07
2019-06-10T18:25:55.413Z,9.40
2019-06-10T18:28:29.257Z,11.93
2019-06-10T18:31:01.216Z,12.70
2019-06-10T18:33:36.032Z,12.17
2019-06-10T18:36:08.555Z,12.20
2019-06-10T18:38:43.132Z,14.20
2019-06-10T18:41:15.625Z,13.67
2019-06-10T18:43:47.570Z,14.33
2019-06-10T18:46:23.034Z,15.40
2019-06-10T18:48:54.529Z,17.30
2019-06-10T18:51:27.499Z,13.00
2019-06-10T18:53:59.400Z,11.47
2019-06-10T18:56:35.654Z,14.20
2019-06-10T18:59:26.443Z,14.90
2019-06-10T19:02:05.445Z,13.43
2019-06-10T19:04:36.490Z,16.03
2019-06-10T19:07:08.558Z,13.90
2019-06-10T19:09:46.986Z,16.57
2019-06-10T19:12:15.319Z,16.63
2019-06-10T19:14:48.220Z,16.97
2019-06-10T19:17:22.926Z,15.17
2019-06-10T19:19:54.971Z,16.60
2019-06-10T19:22:26.875Z,16.87
2019-06-10T19:25:00.373Z,14.97
2019-06-10T19:27:36.876Z,17.97
2019-06-10T19:30:10.194Z,16.20
2019-06-10T19:32:44.296Z,15.33
2019-06-10T19:35:17.148Z,15.20
2019-06-10T19:37:49.697Z,17.53
2019-06-10T19:40:22.843Z,16.57
2019-06-10T19:42:55.508Z,15.90
2019-06-10T19:45:27.506Z,19.10
2019-06-10T19:47:59.407Z,15.30
2019-06-10T19:50:33.063Z,19.83
2019-06-10T19:53:08.484Z,20.60
2019-06-10T19:55:46.137Z,19.87
2019-06-10T19:58:18.178Z,19.27
2019-06-10T20:00:54.031Z,20.17
2019-06-10T20:03:28.635Z,19.53
2019-06-10T20:06:02.906Z,21.13
2019-06-10T20:08:36.103Z,21.13
2019-06-10T20:11:12.306Z,23.90
2019-06-10T20:13:43.669Z,20.30
2019-06-10T20:16:16.820Z,24.13
2019-06-10T20:18:53.608Z,18.17
2019-06-10T20:21:24.630Z,17.47
2019-06-10T20:23:58.616Z,14.73
2019-06-10T20:26:32.899Z,17.33
2019-06-10T20:29:05.922Z,15.87
2019-06-10T20:31:38.455Z,19.03
2019-06-10T20:34:13.107Z,18.17
2019-06-10T20:36:47.491Z,20.23
2019-06-10T20:39:24.461Z,19.23
2019-06-10T20:41:55.710Z,18.93
2019-06-10T20:44:29.074Z,17.23
2019-06-10T20:47:00.975Z,18.10
2019-06-10T20:49:34.892Z,17.43
2019-06-10T20:52:11.455Z,22.80
2019-06-10T20:54:43.398Z,15.83
2019-06-10T20:57:16.806Z,17.63
2019-06-10T20:59:49.844Z,20.00
2019-06-10T21:02:23.786Z,18.77
2019-06-10T21:04:56.810Z,18.47
2019-06-10T21:07:32.346Z,17.27
2019-06-10T21:10:05.940Z,17.50
2019-06-10T21:12:39.722Z,16.00
2019-06-10T21:15:12.566Z,15.47
2019-06-10T21:17:46.433Z,15.50
2019-06-10T21:20:18.699Z,16.90
2019-06-10T21:22:51.442Z,20.03
2019-06-10T21:25:26.293Z,17.77
2019-06-10T21:27:58.744Z,18.07
2019-06-10T21:30:40.547Z,21.30
2019-06-10T21:33:05.585Z,17.47
2019-06-10T21:35:39.220Z,18.77
2019-06-10T21:38:16.800Z,16.77
2019-06-10T21:40:49.694Z,18.20
2019-06-10T21:43:22.452Z,18.90
2019-06-10T21:45:57.569Z,20.23
2019-06-10T21:48:28.854Z,20.97
2019-06-10T21:51:02.239Z,17.40
2019-06-10T21:53:34.639Z,19.80
2019-06-10T21:56:06.470Z,19.47
2019-06-10T21:58:38.551Z,22.73
2019-06-10T22:01:16.751Z,20.13
2019-06-10T22:03:53.205Z,22.20
2019-06-10T22:06:22.902Z,22.60
2019-06-10T22:08:57.827Z,24.07
2019-06-10T22:11:31.081Z,26.37
2019-06-10T22:14:04.475Z,21.80
2019-06-10T22:16:38.081Z,19.03
2019-06-10T22:19:12.824Z,21.47
2019-06-10T22:21:44.861Z,27.60
2019-06-10T22:24:17.413Z,22.73
2019-06-10T22:26:57.163Z,23.20
2019-06-10T22:29:32.150Z,22.20
2019-06-10T22:32:05.100Z,20.90
2019-06-10T22:34:37.963Z,20.67
2019-06-10T22:37:12.509Z,21.90
2019-06-10T22:39:45.676Z,21.07
2019-06-10T22:42:19.296Z,22.27
2019-06-10T22:44:54.549Z,18.70
2019-06-10T22:47:25.943Z,18.30
2019-06-10T22:49:59.819Z,20.87
2019-06-10T22:52:33.996Z,20.60
2019-06-10T22:55:06.235Z,20.47
2019-06-10T22:57:44.056Z,22.43
2019-06-10T23:00:17.154Z,19.97
2019-06-10T23:02:53.332Z,20.40
2019-06-10T23:05:25.437Z,19.37
2019-06-10T23:08:16.316Z,17.80
2019-06-10T23:10:48.589Z,16.80
2019-06-10T23:13:20.325Z,16.30
2019-06-10T23:15:54.006Z,17.10
2019-06-10T23:18:26.169Z,15.93
2019-06-10T23:21:00.679Z,16.33
2019-06-10T23:23:33.663Z,17.30
2019-06-10T23:26:05.788Z,17.53
2019-06-10T23:28:38.503Z,15.93
2019-06-10T23:31:12.800Z,16.47
2019-06-10T23:33:44.653Z,17.67
2019-06-10T23:36:17.276Z,17.23
2019-06-10T23:38:52.982Z,16.80
2019-06-10T23:41:25.572Z,18.57
2019-06-10T23:43:57.730Z,15.07
2019-06-10T23:46:32.058Z,17.53
2019-06-10T23:49:05.213Z,17.90
2019-06-10T23:51:37.195Z,16.43
2019-06-10T23:54:09.721Z,18.67
2019-06-10T23:56:42.820Z,17.17
2019-06-10T23:59:16.230Z,15.60
